sensor_id;sensor_type;location;lat;lon;timestamp;pressure;altitude;pressure_sealevel;temperature;humidity
49611;BME280;35515;48.766;9.176;2024-02-16T00:02:07;98178.13;;;10.20;98.61
49611;BME280;35515;48.766;9.176;2024-02-16T00:04:33;98175.41;;;10.27;97.55
49611;BME280;35515;48.766;9.176;2024-02-16T00:07:00;98179.81;;;10.35;96.90
49611;BME280;35515;48.766;9.176;2024-02-16T00:09:27;98172.09;;;10.32;96.71
49611;BME280;35515;48.766;9.176;2024-02-16T00:11:53;98175.63;;;10.39;96.34
49611;BME280;35515;48.766;9.176;2024-02-16T00:14:21;98175.03;;;10.37;95.91
49611;BME280;35515;48.766;9.176;2024-02-16T00:16:48;98170.84;;;10.41;96.51
49611;BME280;35515;48.766;9.176;2024-02-16T00:19:14;98170.63;;;10.43;96.41
49611;BME280;35515;48.766;9.176;2024-02-16T00:21:41;98167.28;;;10.34;96.55
49611;BME280;35515;48.766;9.176;2024-02-16T00:24:08;98167.28;;;10.34;96.49
49611;BME280;35515;48.766;9.176;2024-02-16T00:26:34;98167.28;;;10.47;95.31
49611;BME280;35515;48.766;9.176;2024-02-16T00:29:01;98162.91;;;10.33;97.02
49611;BME280;35515;48.766;9.176;2024-02-16T00:31:29;98161.88;;;10.34;97.48
49611;BME280;35515;48.766;9.176;2024-02-16T00:33:56;98158.56;;;10.45;95.40
49611;BME280;35515;48.766;9.176;2024-02-16T00:36:23;98163.50;;;10.55;94.40
49611;BME280;35515;48.766;9.176;2024-02-16T00:38:49;98173.09;;;10.58;95.30
49611;BME280;35515;48.766;9.176;2024-02-16T00:41:19;98169.34;;;10.59;94.46
49611;BME280;35515;48.766;9.176;2024-02-16T00:43:47;98164.34;;;10.49;96.42
49611;BME280;35515;48.766;9.176;2024-02-16T00:46:13;98166.47;;;10.47;95.05
49611;BME280;35515;48.766;9.176;2024-02-16T00:48:41;98156.47;;;10.41;97.06
49611;BME280;35515;48.766;9.176;2024-02-16T00:51:08;98161.66;;;10.49;96.08
49611;BME280;35515;48.766;9.176;2024-02-16T00:53:35;98161.03;;;10.53;95.54
49611;BME280;35515;48.766;9.176;2024-02-16T00:56:01;98164.38;;;10.56;95.86
49611;BME280;35515;48.766;9.176;2024-02-16T00:58:29;98157.66;;;10.58;95.47
49611;BME280;35515;48.766;9.176;2024-02-16T01:00:55;98158.06;;;10.62;93.94
49611;BME280;35515;48.766;9.176;2024-02-16T01:03:22;98162.25;;;10.58;95.60
49611;BME280;35515;48.766;9.176;2024-02-16T01:05:50;98165.38;;;10.61;93.91
49611;BME280;35515;48.766;9.176;2024-02-16T01:08:16;98162.03;;;10.59;93.49
49611;BME280;35515;48.766;9.176;2024-02-16T01:10:43;98148.72;;;10.58;93.96
49611;BME280;35515;48.766;9.176;2024-02-16T01:13:09;98171.06;;;10.46;95.41
49611;BME280;35515;48.766;9.176;2024-02-16T01:15:36;98167.25;;;10.54;94.40
49611;BME280;35515;48.766;9.176;2024-02-16T01:18:03;98163.97;;;10.39;95.68
49611;BME280;35515;48.766;9.176;2024-02-16T01:20:30;98174.59;;;10.40;95.50
49611;BME280;35515;48.766;9.176;2024-02-16T01:22:58;98167.28;;;10.47;94.34
49611;BME280;35515;48.766;9.176;2024-02-16T01:25:24;98164.56;;;10.47;95.11
49611;BME280;35515;48.766;9.176;2024-02-16T01:27:51;98168.56;;;10.38;96.66
49611;BME280;35515;48.766;9.176;2024-02-16T01:30:17;98172.09;;;10.32;96.76
49611;BME280;35515;48.766;9.176;2024-02-16T01:32:45;98165.44;;;10.41;95.48
49611;BME280;35515;48.766;9.176;2024-02-16T01:35:12;98153.53;;;10.42;95.83
49611;BME280;35515;48.766;9.176;2024-02-16T01:37:39;98161.47;;;10.44;96.72
49611;BME280;35515;48.766;9.176;2024-02-16T01:40:09;98157.72;;;10.38;97.81
49611;BME280;35515;48.766;9.176;2024-02-16T01:42:39;98168.13;;;10.34;97.58
49611;BME280;35515;48.766;9.176;2024-02-16T01:45:06;98147.75;;;10.25;98.24
49611;BME280;35515;48.766;9.176;2024-02-16T01:47:34;98157.50;;;10.26;97.61
49611;BME280;35515;48.766;9.176;2024-02-16T01:50:01;98156.47;;;10.20;98.21
49611;BME280;35515;48.766;9.176;2024-02-16T01:52:28;98160.25;;;10.40;95.81
49611;BME280;35515;48.766;9.176;2024-02-16T01:54:56;98147.94;;;10.30;97.11
49611;BME280;35515;48.766;9.176;2024-02-16T01:57:24;98147.94;;;10.30;96.66
49611;BME280;35515;48.766;9.176;2024-02-16T01:59:50;98144.38;;;10.30;97.68
49611;BME280;35515;48.766;9.176;2024-02-16T02:02:18;98147.09;;;10.36;98.04
49611;BME280;35515;48.766;9.176;2024-02-16T02:04:44;98146.84;;;10.51;97.36
49611;BME280;35515;48.766;9.176;2024-02-16T02:07:12;98142.69;;;10.56;97.73
49611;BME280;35515;48.766;9.176;2024-02-16T02:09:38;98153.72;;;10.54;98.34
49611;BME280;35515;48.766;9.176;2024-02-16T02:12:05;98142.91;;;10.47;99.71
49611;BME280;35515;48.766;9.176;2024-02-16T02:14:33;98150.22;;;10.47;99.67
49611;BME280;35515;48.766;9.176;2024-02-16T02:16:59;98142.31;;;10.45;99.37
49611;BME280;35515;48.766;9.176;2024-02-16T02:19:26;98140.44;;;10.39;100.00
49611;BME280;35515;48.766;9.176;2024-02-16T02:21:53;98138.56;;;10.40;100.00
49611;BME280;35515;48.766;9.176;2024-02-16T02:24:20;98131.88;;;10.42;100.00
49611;BME280;35515;48.766;9.176;2024-02-16T02:26:46;98125.66;;;10.35;100.00
49611;BME280;35515;48.766;9.176;2024-02-16T02:29:13;98135.22;;;10.44;100.00
49611;BME280;35515;48.766;9.176;2024-02-16T02:31:39;98131.69;;;10.44;99.57
49611;BME280;35515;48.766;9.176;2024-02-16T02:34:06;98137.72;;;10.39;100.00
49611;BME280;35515;48.766;9.176;2024-02-16T02:36:32;98123.75;;;10.42;99.78
49611;BME280;35515;48.766;9.176;2024-02-16T02:38:59;98133.31;;;10.45;99.60
49611;BME280;35515;48.766;9.176;2024-02-16T02:41:27;98127.09;;;10.44;100.00
49611;BME280;35515;48.766;9.176;2024-02-16T02:43:53;98126.91;;;10.39;100.00
49611;BME280;35515;48.766;9.176;2024-02-16T02:46:20;98131.88;;;10.42;100.00
49611;BME280;35515;48.766;9.176;2024-02-16T02:48:46;98121.47;;;10.46;100.00
49611;BME280;35515;48.766;9.176;2024-02-16T02:51:13;98128.78;;;10.39;100.00
49611;BME280;35515;48.766;9.176;2024-02-16T02:53:40;98111.91;;;10.36;100.00
49611;BME280;35515;48.766;9.176;2024-02-16T02:56:07;98113.78;;;10.36;100.00
49611;BME280;35515;48.766;9.176;2024-02-16T02:58:35;98115.03;;;10.27;100.00
49611;BME280;35515;48.766;9.176;2024-02-16T03:01:01;98107.34;;;10.24;100.00
49611;BME280;35515;48.766;9.176;2024-02-16T03:03:28;98108.16;;;10.24;100.00
49611;BME280;35515;48.766;9.176;2024-02-16T03:05:55;98101.06;;;10.36;100.00
49611;BME280;35515;48.766;9.176;2024-02-16T03:08:21;98105.44;;;10.44;100.00
49611;BME280;35515;48.766;9.176;2024-02-16T03:10:48;98099.13;;;10.57;100.00
49611;BME280;35515;48.766;9.176;2024-02-16T03:13:14;98093.09;;;10.55;99.50
49611;BME280;35515;48.766;9.176;2024-02-16T03:15:44;98095.25;;;10.40;100.00
49611;BME280;35515;48.766;9.176;2024-02-16T03:18:11;98086.03;;;10.47;100.00
49611;BME280;35515;48.766;9.176;2024-02-16T03:20:38;98094.81;;;10.43;100.00
49611;BME280;35515;48.766;9.176;2024-02-16T03:23:04;98097.31;;;10.44;100.00
49611;BME280;35515;48.766;9.176;2024-02-16T03:25:31;98100.63;;;10.46;100.00
49611;BME280;35515;48.766;9.176;2024-02-16T03:27:57;98105.41;;;10.51;100.00
49611;BME280;35515;48.766;9.176;2024-02-16T03:30:26;98111.03;;;10.49;100.00
49611;BME280;35515;48.766;9.176;2024-02-16T03:32:54;98103.53;;;10.45;100.00
49611;BME280;35515;48.766;9.176;2024-02-16T03:35:20;98114.16;;;10.53;100.00
49611;BME280;35515;48.766;9.176;2024-02-16T03:37:46;98109.56;;;10.53;100.00
49611;BME280;35515;48.766;9.176;2024-02-16T03:40:13;98114.78;;;10.48;100.00
49611;BME280;35515;48.766;9.176;2024-02-16T03:42:40;98112.06;;;10.48;100.00
49611;BME280;35515;48.766;9.176;2024-02-16T03:45:07;98112.31;;;10.40;100.00
49611;BME280;35515;48.766;9.176;2024-02-16T03:47:34;98116.88;;;10.33;100.00
49611;BME280;35515;48.766;9.176;2024-02-16T03:50:02;98112.31;;;10.40;100.00
49611;BME280;35515;48.766;9.176;2024-02-16T03:52:28;98115.22;;;10.45;100.00
49611;BME280;35515;48.766;9.176;2024-02-16T03:54:56;98111.84;;;10.50;100.00
49611;BME280;35515;48.766;9.176;2024-02-16T03:57:22;98125.16;;;10.58;100.00
49611;BME280;35515;48.766;9.176;2024-02-16T03:59:49;98120.16;;;10.62;100.00
49611;BME280;35515;48.766;9.176;2024-02-16T04:02:15;98119.72;;;10.58;100.00
49611;BME280;35515;48.766;9.176;2024-02-16T04:04:42;98126.84;;;10.52;100.00
49611;BME280;35515;48.766;9.176;2024-02-16T04:07:10;98126.06;;;10.45;100.00
49611;BME280;35515;48.766;9.176;2024-02-16T04:09:36;98123.53;;;10.50;100.00
49611;BME280;35515;48.766;9.176;2024-02-16T04:12:04;98118.06;;;10.64;100.00
49611;BME280;35515;48.766;9.176;2024-02-16T04:14:30;98109.56;;;10.53;100.00
49611;BME280;35515;48.766;9.176;2024-02-16T04:16:59;98121.84;;;10.56;100.00
49611;BME280;35515;48.766;9.176;2024-02-16T04:19:26;98118.31;;;10.56;100.00
49611;BME280;35515;48.766;9.176;2024-02-16T04:21:52;98122.00;;;10.68;99.54
49611;BME280;35515;48.766;9.176;2024-02-16T04:24:20;98119.31;;;10.61;98.85
49611;BME280;35515;48.766;9.176;2024-02-16T04:26:47;98126.78;;;10.66;98.69
49611;BME280;35515;48.766;9.176;2024-02-16T04:29:14;98122.47;;;10.51;100.00
49611;BME280;35515;48.766;9.176;2024-02-16T04:31:41;98131.84;;;10.49;100.00
49611;BME280;35515;48.766;9.176;2024-02-16T04:34:10;98127.91;;;10.45;99.77
49611;BME280;35515;48.766;9.176;2024-02-16T04:36:37;98129.34;;;10.54;99.02
49611;BME280;35515;48.766;9.176;2024-02-16T04:39:03;98132.22;;;10.66;97.88
49611;BME280;35515;48.766;9.176;2024-02-16T04:41:31;98142.22;;;10.65;98.53
49611;BME280;35515;48.766;9.176;2024-02-16T04:43:57;98131.22;;;10.53;99.65
49611;BME280;35515;48.766;9.176;2024-02-16T04:46:24;98130.59;;;10.51;100.00
49611;BME280;35515;48.766;9.176;2024-02-16T04:48:52;98135.16;;;10.58;99.95
49611;BME280;35515;48.766;9.176;2024-02-16T04:51:18;98132.91;;;10.54;100.00
49611;BME280;35515;48.766;9.176;2024-02-16T04:53:45;98130.97;;;10.62;100.00
49611;BME280;35515;48.766;9.176;2024-02-16T04:56:11;98134.34;;;10.57;100.00
49611;BME280;35515;48.766;9.176;2024-02-16T04:58:41;98131.84;;;10.56;100.00
49611;BME280;35515;48.766;9.176;2024-02-16T05:01:08;98130.16;;;10.61;100.00
49611;BME280;35515;48.766;9.176;2024-02-16T05:03:35;98128.09;;;10.57;100.00
49611;BME280;35515;48.766;9.176;2024-02-16T05:06:02;98139.75;;;10.64;99.50
49611;BME280;35515;48.766;9.176;2024-02-16T05:08:29;98140.78;;;10.63;99.98
49611;BME280;35515;48.766;9.176;2024-02-16T05:10:56;98128.72;;;10.59;100.00
49611;BME280;35515;48.766;9.176;2024-02-16T05:13:22;98139.97;;;10.49;100.00
49611;BME280;35515;48.766;9.176;2024-02-16T05:15:51;98133.31;;;10.51;100.00
49611;BME280;35515;48.766;9.176;2024-02-16T05:18:21;98136.84;;;10.59;100.00
49611;BME280;35515;48.766;9.176;2024-02-16T05:20:48;98144.34;;;10.57;100.00
49611;BME280;35515;48.766;9.176;2024-02-16T05:23:14;98142.69;;;10.56;100.00
49611;BME280;35515;48.766;9.176;2024-02-16T05:25:41;98144.13;;;10.51;100.00
49611;BME280;35515;48.766;9.176;2024-02-16T05:28:07;98154.38;;;10.49;100.00
49611;BME280;35515;48.766;9.176;2024-02-16T05:30:34;98151.03;;;10.47;100.00
49611;BME280;35515;48.766;9.176;2024-02-16T05:33:02;98153.94;;;10.52;100.00
49611;BME280;35515;48.766;9.176;2024-02-16T05:35:29;98148.28;;;10.61;100.00
49611;BME280;35515;48.766;9.176;2024-02-16T05:37:59;98148.50;;;10.59;100.00
49611;BME280;35515;48.766;9.176;2024-02-16T05:40:32;98154.31;;;10.63;99.68
49611;BME280;35515;48.766;9.176;2024-02-16T05:43:10;98154.31;;;10.69;99.34
49611;BME280;35515;48.766;9.176;2024-02-16T05:45:37;98161.59;;;10.69;99.64
49611;BME280;35515;48.766;9.176;2024-02-16T05:48:08;98159.31;;;10.66;100.00
49611;BME280;35515;48.766;9.176;2024-02-16T05:50:35;98166.41;;;10.60;100.00
49611;BME280;35515;48.766;9.176;2024-02-16T05:53:02;98167.25;;;10.61;100.00
49611;BME280;35515;48.766;9.176;2024-02-16T05:55:28;98158.06;;;10.62;100.00
49611;BME280;35515;48.766;9.176;2024-02-16T05:57:55;98158.47;;;10.65;100.00
49611;BME280;35515;48.766;9.176;2024-02-16T06:00:21;98157.63;;;10.65;100.00
49611;BME280;35515;48.766;9.176;2024-02-16T06:02:48;98155.38;;;10.55;100.00
49611;BME280;35515;48.766;9.176;2024-02-16T06:05:16;98163.50;;;10.55;100.00
49611;BME280;35515;48.766;9.176;2024-02-16T06:07:42;98165.63;;;10.46;100.00
49611;BME280;35515;48.766;9.176;2024-02-16T06:10:09;98159.16;;;10.47;100.00
49611;BME280;35515;48.766;9.176;2024-02-16T06:12:37;98166.00;;;10.57;98.95
49611;BME280;35515;48.766;9.176;2024-02-16T06:15:04;98165.91;;;10.83;95.20
49611;BME280;35515;48.766;9.176;2024-02-16T06:17:31;98176.00;;;10.63;97.10
49611;BME280;35515;48.766;9.176;2024-02-16T06:19:58;98178.09;;;10.54;98.41
49611;BME280;35515;48.766;9.176;2024-02-16T06:22:25;98181.00;;;10.59;97.74
49611;BME280;35515;48.766;9.176;2024-02-16T06:24:53;98187.69;;;10.50;98.90
49611;BME280;35515;48.766;9.176;2024-02-16T06:27:19;98184.75;;;10.51;99.16
49611;BME280;35515;48.766;9.176;2024-02-16T06:29:46;98189.13;;;10.59;99.00
49611;BME280;35515;48.766;9.176;2024-02-16T06:32:12;98189.34;;;10.58;98.70
49611;BME280;35515;48.766;9.176;2024-02-16T06:34:39;98189.78;;;10.54;98.91
49611;BME280;35515;48.766;9.176;2024-02-16T06:37:06;98202.88;;;10.58;98.87
49611;BME280;35515;48.766;9.176;2024-02-16T06:39:34;98197.72;;;10.43;99.91
49611;BME280;35515;48.766;9.176;2024-02-16T06:42:00;98204.78;;;10.50;99.85
49611;BME280;35515;48.766;9.176;2024-02-16T06:44:27;98209.56;;;10.55;98.92
49611;BME280;35515;48.766;9.176;2024-02-16T06:46:53;98215.63;;;10.50;98.91
49611;BME280;35515;48.766;9.176;2024-02-16T06:49:20;98213.13;;;10.42;100.00
49611;BME280;35515;48.766;9.176;2024-02-16T06:51:47;98213.53;;;10.46;99.38
49611;BME280;35515;48.766;9.176;2024-02-16T06:54:13;98231.47;;;10.47;99.28
49611;BME280;35515;48.766;9.176;2024-02-16T06:56:42;98235.00;;;10.47;99.36
49611;BME280;35515;48.766;9.176;2024-02-16T06:59:09;98227.28;;;10.31;99.66
49611;BME280;35515;48.766;9.176;2024-02-16T07:01:35;98232.94;;;10.36;99.77
49611;BME280;35515;48.766;9.176;2024-02-16T07:04:02;98230.59;;;10.33;99.51
49611;BME280;35515;48.766;9.176;2024-02-16T07:06:29;98243.78;;;10.36;98.49
49611;BME280;35515;48.766;9.176;2024-02-16T07:08:55;98245.59;;;10.29;98.82
49611;BME280;35515;48.766;9.176;2024-02-16T07:11:22;98245.59;;;10.29;98.43
49611;BME280;35515;48.766;9.176;2024-02-16T07:13:50;98250.63;;;10.32;97.95
49611;BME280;35515;48.766;9.176;2024-02-16T07:16:16;98249.38;;;10.41;96.73
49611;BME280;35515;48.766;9.176;2024-02-16T07:18:43;98248.16;;;10.37;97.45
49611;BME280;35515;48.766;9.176;2024-02-16T07:21:10;98247.50;;;10.35;97.18
49611;BME280;35515;48.766;9.176;2024-02-16T07:23:37;98256.06;;;10.45;95.21
49611;BME280;35515;48.766;9.176;2024-02-16T07:26:04;98251.88;;;10.36;96.11
49611;BME280;35515;48.766;9.176;2024-02-16T07:28:30;98249.78;;;10.25;96.17
49611;BME280;35515;48.766;9.176;2024-02-16T07:30:58;98258.53;;;10.27;94.60
49611;BME280;35515;48.766;9.176;2024-02-16T07:33:24;98254.78;;;10.14;94.87
49611;BME280;35515;48.766;9.176;2024-02-16T07:35:53;98258.09;;;10.16;95.87
49611;BME280;35515;48.766;9.176;2024-02-16T07:38:20;98265.19;;;10.17;94.87
49611;BME280;35515;48.766;9.176;2024-02-16T07:40:47;98257.28;;;10.16;95.45
49611;BME280;35515;48.766;9.176;2024-02-16T07:43:16;98258.31;;;10.15;95.09
49611;BME280;35515;48.766;9.176;2024-02-16T07:45:42;98261.03;;;10.15;96.15
49611;BME280;35515;48.766;9.176;2024-02-16T07:48:10;98261.25;;;10.20;95.33
49611;BME280;35515;48.766;9.176;2024-02-16T07:50:37;98255.19;;;10.11;96.68
49611;BME280;35515;48.766;9.176;2024-02-16T07:53:03;98263.72;;;10.21;95.51
49611;BME280;35515;48.766;9.176;2024-02-16T07:55:30;98260.59;;;10.25;95.80
49611;BME280;35515;48.766;9.176;2024-02-16T07:57:56;98269.56;;;10.32;95.13
49611;BME280;35515;48.766;9.176;2024-02-16T08:00:23;98262.06;;;10.27;95.75
49611;BME280;35515;48.766;9.176;2024-02-16T08:02:49;98263.09;;;10.33;95.47
49611;BME280;35515;48.766;9.176;2024-02-16T08:05:18;98267.47;;;10.27;95.67
49611;BME280;35515;48.766;9.176;2024-02-16T08:07:46;98272.50;;;10.24;96.11
49611;BME280;35515;48.766;9.176;2024-02-16T08:10:13;98267.69;;;10.26;95.89
49611;BME280;35515;48.766;9.176;2024-02-16T08:12:39;98268.72;;;10.25;96.39
49611;BME280;35515;48.766;9.176;2024-02-16T08:15:07;98271.22;;;10.19;96.71
49611;BME280;35515;48.766;9.176;2024-02-16T08:17:33;98275.59;;;10.20;97.22
49611;BME280;35515;48.766;9.176;2024-02-16T08:20:00;98266.88;;;10.32;96.15
49611;BME280;35515;48.766;9.176;2024-02-16T08:22:28;98272.28;;;10.32;96.30
49611;BME280;35515;48.766;9.176;2024-02-16T08:24:55;98267.09;;;10.37;96.15
49611;BME280;35515;48.766;9.176;2024-02-16T08:27:21;98270.41;;;10.39;96.04
49611;BME280;35515;48.766;9.176;2024-02-16T08:29:48;98272.28;;;10.45;95.42
49611;BME280;35515;48.766;9.176;2024-02-16T08:32:14;98279.78;;;10.50;95.35
49611;BME280;35515;48.766;9.176;2024-02-16T08:34:42;98276.84;;;10.51;95.02
49611;BME280;35515;48.766;9.176;2024-02-16T08:37:09;98276.25;;;10.56;94.49
49611;BME280;35515;48.766;9.176;2024-02-16T08:39:38;98278.09;;;10.69;93.59
49611;BME280;35515;48.766;9.176;2024-02-16T08:42:06;98274.13;;;10.78;93.11
49611;BME280;35515;48.766;9.176;2024-02-16T08:44:34;98270.56;;;10.84;92.85
49611;BME280;35515;48.766;9.176;2024-02-16T08:47:01;98270.34;;;10.79;92.38
49611;BME280;35515;48.766;9.176;2024-02-16T08:49:27;98270.34;;;10.79;92.41
49611;BME280;35515;48.766;9.176;2024-02-16T08:51:54;98279.31;;;10.86;91.02
49611;BME280;35515;48.766;9.176;2024-02-16T08:54:20;98279.31;;;10.86;90.95
49611;BME280;35515;48.766;9.176;2024-02-16T08:56:48;98279.69;;;10.90;90.39
49611;BME280;35515;48.766;9.176;2024-02-16T08:59:15;98280.13;;;10.94;91.18
49611;BME280;35515;48.766;9.176;2024-02-16T09:01:42;98286.78;;;10.98;90.74
49611;BME280;35515;48.766;9.176;2024-02-16T09:04:09;98275.31;;;11.02;89.56
49611;BME280;35515;48.766;9.176;2024-02-16T09:06:36;98283.00;;;11.06;90.07
49611;BME280;35515;48.766;9.176;2024-02-16T09:09:04;98280.50;;;11.04;89.58
49611;BME280;35515;48.766;9.176;2024-02-16T09:11:32;98273.81;;;11.13;88.69
49611;BME280;35515;48.766;9.176;2024-02-16T09:14:00;98282.31;;;11.24;86.61
49611;BME280;35515;48.766;9.176;2024-02-16T09:16:26;98282.94;;;11.26;87.52
49611;BME280;35515;48.766;9.176;2024-02-16T09:18:53;98275.41;;;11.34;85.57
49611;BME280;35515;48.766;9.176;2024-02-16T09:21:19;98280.78;;;11.41;84.45
49611;BME280;35515;48.766;9.176;2024-02-16T09:23:49;98283.25;;;11.49;83.14
49611;BME280;35515;48.766;9.176;2024-02-16T09:26:15;98286.75;;;11.57;82.88
49611;BME280;35515;48.766;9.176;2024-02-16T09:28:42;98290.28;;;11.64;82.13
49611;BME280;35515;48.766;9.176;2024-02-16T09:31:13;98290.88;;;11.66;82.91
49611;BME280;35515;48.766;9.176;2024-02-16T09:33:40;98297.34;;;11.71;81.51
49611;BME280;35515;48.766;9.176;2024-02-16T09:36:07;98296.47;;;11.71;82.48
49611;BME280;35515;48.766;9.176;2024-02-16T09:38:34;98304.59;;;11.78;83.21
49611;BME280;35515;48.766;9.176;2024-02-16T09:41:01;98296.41;;;11.84;82.17
49611;BME280;35515;48.766;9.176;2024-02-16T09:43:29;98301.56;;;11.93;81.67
49611;BME280;35515;48.766;9.176;2024-02-16T09:45:57;98308.66;;;11.94;82.48
49611;BME280;35515;48.766;9.176;2024-02-16T09:48:27;98307.22;;;11.98;83.10
49611;BME280;35515;48.766;9.176;2024-02-16T09:50:54;98314.84;;;12.14;80.27
49611;BME280;35515;48.766;9.176;2024-02-16T09:53:24;98312.28;;;12.19;81.43
49611;BME280;35515;48.766;9.176;2024-02-16T09:55:50;98317.00;;;12.31;79.77
49611;BME280;35515;48.766;9.176;2024-02-16T09:58:17;98318.56;;;12.45;79.70
49611;BME280;35515;48.766;9.176;2024-02-16T10:00:48;98317.28;;;12.48;78.90
49611;BME280;35515;48.766;9.176;2024-02-16T10:03:22;98321.88;;;12.47;79.10
49611;BME280;35515;48.766;9.176;2024-02-16T10:05:51;98329.78;;;12.56;77.77
49611;BME280;35515;48.766;9.176;2024-02-16T10:08:18;98334.88;;;12.70;76.20
49611;BME280;35515;48.766;9.176;2024-02-16T10:10:45;98335.91;;;12.69;78.15
49611;BME280;35515;48.766;9.176;2024-02-16T10:13:12;98338.13;;;12.79;76.57
49611;BME280;35515;48.766;9.176;2024-02-16T10:15:38;98347.13;;;12.80;77.51
49611;BME280;35515;48.766;9.176;2024-02-16T10:18:06;98344.50;;;12.92;75.76
49611;BME280;35515;48.766;9.176;2024-02-16T10:20:34;98343.72;;;12.84;76.38
49611;BME280;35515;48.766;9.176;2024-02-16T10:23:07;98346.91;;;12.81;77.14
49611;BME280;35515;48.766;9.176;2024-02-16T10:25:34;98355.22;;;12.86;76.05
49611;BME280;35515;48.766;9.176;2024-02-16T10:28:04;98346.44;;;12.84;77.24
49611;BME280;35515;48.766;9.176;2024-02-16T10:30:35;98349.09;;;12.91;77.25
49611;BME280;35515;48.766;9.176;2024-02-16T10:33:03;98356.97;;;12.99;76.79
49611;BME280;35515;48.766;9.176;2024-02-16T10:35:30;98363.84;;;13.02;76.71
49611;BME280;35515;48.766;9.176;2024-02-16T10:38:00;98361.44;;;13.12;75.58
49611;BME280;35515;48.766;9.176;2024-02-16T10:40:32;98366.59;;;13.20;74.59
49611;BME280;35515;48.766;9.176;2024-02-16T10:43:03;98368.56;;;13.32;72.92
49611;BME280;35515;48.766;9.176;2024-02-16T10:45:33;98362.84;;;13.40;72.12
49611;BME280;35515;48.766;9.176;2024-02-16T10:48:01;98362.38;;;13.43;71.27
49611;BME280;35515;48.766;9.176;2024-02-16T10:50:28;98356.13;;;13.43;72.09
49611;BME280;35515;48.766;9.176;2024-02-16T10:52:56;98361.50;;;13.49;71.40
49611;BME280;35515;48.766;9.176;2024-02-16T10:55:24;98367.31;;;13.53;71.10
49611;BME280;35515;48.766;9.176;2024-02-16T10:57:52;98368.97;;;13.54;70.31
49611;BME280;35515;48.766;9.176;2024-02-16T11:00:21;98371.25;;;13.57;70.55
49611;BME280;35515;48.766;9.176;2024-02-16T11:02:52;98369.25;;;13.64;69.54
49611;BME280;35515;48.766;9.176;2024-02-16T11:05:31;98356.84;;;13.68;68.89
49611;BME280;35515;48.766;9.176;2024-02-16T11:08:00;98374.16;;;13.74;70.14
49611;BME280;35515;48.766;9.176;2024-02-16T11:10:26;98366.38;;;13.78;69.15
49611;BME280;35515;48.766;9.176;2024-02-16T11:12:55;98367.47;;;13.88;69.19
49611;BME280;35515;48.766;9.176;2024-02-16T11:15:31;98365.63;;;13.89;68.66
49611;BME280;35515;48.766;9.176;2024-02-16T11:17:58;98365.84;;;13.87;69.42
49611;BME280;35515;48.766;9.176;2024-02-16T11:20:26;98359.06;;;13.90;68.80
49611;BME280;35515;48.766;9.176;2024-02-16T11:22:53;98359.31;;;13.88;68.84
49611;BME280;35515;48.766;9.176;2024-02-16T11:25:30;98363.72;;;13.90;69.71
49611;BME280;35515;48.766;9.176;2024-02-16T11:27:58;98359.22;;;13.95;68.40
49611;BME280;35515;48.766;9.176;2024-02-16T11:30:25;98362.19;;;13.94;69.68
49611;BME280;35515;48.766;9.176;2024-02-16T11:32:51;98360.41;;;13.87;70.67
49611;BME280;35515;48.766;9.176;2024-02-16T11:35:18;98363.94;;;13.88;70.46
49611;BME280;35515;48.766;9.176;2024-02-16T11:37:44;98357.44;;;13.89;70.80
49611;BME280;35515;48.766;9.176;2024-02-16T11:40:12;98353.44;;;13.92;70.25
49611;BME280;35515;48.766;9.176;2024-02-16T11:42:39;98362.03;;;13.88;70.92
49611;BME280;35515;48.766;9.176;2024-02-16T11:45:10;98360.97;;;13.90;71.03
49611;BME280;35515;48.766;9.176;2024-02-16T11:47:37;98353.44;;;13.92;70.84
49611;BME280;35515;48.766;9.176;2024-02-16T11:50:05;98355.69;;;13.95;70.88
49611;BME280;35515;48.766;9.176;2024-02-16T11:52:34;98361.28;;;14.00;70.41
49611;BME280;35515;48.766;9.176;2024-02-16T11:55:01;98360.31;;;14.06;70.03
49611;BME280;35515;48.766;9.176;2024-02-16T11:57:29;98361.22;;;14.18;69.06
49611;BME280;35515;48.766;9.176;2024-02-16T11:59:56;98354.25;;;14.23;69.34
49611;BME280;35515;48.766;9.176;2024-02-16T12:02:24;98354.81;;;14.25;69.84
49611;BME280;35515;48.766;9.176;2024-02-16T12:04:57;98356.63;;;14.31;68.90
49611;BME280;35515;48.766;9.176;2024-02-16T12:07:25;98351.91;;;14.38;68.42
49611;BME280;35515;48.766;9.176;2024-02-16T12:09:56;98358.78;;;14.41;69.00
49611;BME280;35515;48.766;9.176;2024-02-16T12:12:22;98352.03;;;14.43;68.43
49611;BME280;35515;48.766;9.176;2024-02-16T12:14:49;98354.09;;;14.60;67.02
49611;BME280;35515;48.766;9.176;2024-02-16T12:17:16;98353.28;;;14.71;66.04
49611;BME280;35515;48.766;9.176;2024-02-16T12:19:45;98348.63;;;14.60;67.97
49611;BME280;35515;48.766;9.176;2024-02-16T12:22:16;98351.94;;;14.62;68.10
49611;BME280;35515;48.766;9.176;2024-02-16T12:24:43;98356.03;;;14.71;67.68
49611;BME280;35515;48.766;9.176;2024-02-16T12:27:10;98356.16;;;14.88;67.47
49611;BME280;35515;48.766;9.176;2024-02-16T12:29:36;98363.63;;;14.93;67.98
49611;BME280;35515;48.766;9.176;2024-02-16T12:32:05;98363.75;;;14.98;67.91
49611;BME280;35515;48.766;9.176;2024-02-16T12:34:31;98362.81;;;15.04;67.71
49611;BME280;35515;48.766;9.176;2024-02-16T12:37:00;98360.66;;;15.18;66.78
49611;BME280;35515;48.766;9.176;2024-02-16T12:39:26;98359.09;;;15.34;66.05
49611;BME280;35515;48.766;9.176;2024-02-16T12:41:53;98363.84;;;15.27;66.27
49611;BME280;35515;48.766;9.176;2024-02-16T12:44:19;98362.19;;;15.26;65.88
49611;BME280;35515;48.766;9.176;2024-02-16T12:46:46;98361.81;;;15.22;66.55
49611;BME280;35515;48.766;9.176;2024-02-16T12:49:13;98362.31;;;15.07;67.31
49611;BME280;35515;48.766;9.176;2024-02-16T12:51:40;98357.22;;;14.99;68.13
49611;BME280;35515;48.766;9.176;2024-02-16T12:54:08;98368.00;;;14.94;68.57
49611;BME280;35515;48.766;9.176;2024-02-16T12:56:39;98364.22;;;14.95;68.61
49611;BME280;35515;48.766;9.176;2024-02-16T12:59:05;98371.22;;;14.91;69.41